sensor_id;sensor_type;location;lat;lon;timestamp;temperature;humidity
52565;DHT22;38460;53.106;7.004;2022-10-16T00:01:09;12.30;99.90
52565;DHT22;38460;53.106;7.004;2022-10-16T00:03:37;12.30;99.90
52565;DHT22;38460;53.106;7.004;2022-10-16T00:06:03;12.30;99.90
52565;DHT22;38460;53.106;7.004;2022-10-16T00:08:29;12.30;99.90
52565;DHT22;38460;53.106;7.004;2022-10-16T00:11:03;12.20;99.90
52565;DHT22;38460;53.106;7.004;2022-10-16T00:13:29;12.20;99.90
52565;DHT22;38460;53.106;7.004;2022-10-16T00:15:56;12.20;99.90
52565;DHT22;38460;53.106;7.004;2022-10-16T00:18:23;12.10;99.90
52565;DHT22;38460;53.106;7.004;2022-10-16T00:20:49;12.10;99.90
52565;DHT22;38460;53.106;7.004;2022-10-16T00:23:15;12.10;99.90
52565;DHT22;38460;53.106;7.004;2022-10-16T00:25:41;12.10;99.90
52565;DHT22;38460;53.106;7.004;2022-10-16T00:28:06;12.10;99.90
52565;DHT22;38460;53.106;7.004;2022-10-16T00:30:32;12.10;99.90
52565;DHT22;38460;53.106;7.004;2022-10-16T00:32:58;12.00;99.90
52565;DHT22;38460;53.106;7.004;2022-10-16T00:35:24;12.00;99.90
52565;DHT22;38460;53.106;7.004;2022-10-16T00:37:50;12.00;99.90
52565;DHT22;38460;53.106;7.004;2022-10-16T00:40:16;12.00;99.90
52565;DHT22;38460;53.106;7.004;2022-10-16T00:42:41;12.00;99.90
52565;DHT22;38460;53.106;7.004;2022-10-16T00:45:08;11.90;99.90
52565;DHT22;38460;53.106;7.004;2022-10-16T00:47:37;11.90;99.90
52565;DHT22;38460;53.106;7.004;2022-10-16T00:50:12;11.90;99.90
52565;DHT22;38460;53.106;7.004;2022-10-16T00:52:43;11.90;99.90
52565;DHT22;38460;53.106;7.004;2022-10-16T00:55:10;11.90;99.90
52565;DHT22;38460;53.106;7.004;2022-10-16T00:57:37;11.90;99.90
52565;DHT22;38460;53.106;7.004;2022-10-16T01:00:05;11.90;99.90
52565;DHT22;38460;53.106;7.004;2022-10-16T01:02:32;11.90;99.90
52565;DHT22;38460;53.106;7.004;2022-10-16T01:04:57;11.90;99.90
52565;DHT22;38460;53.106;7.004;2022-10-16T01:08:03;11.90;99.90
52565;DHT22;38460;53.106;7.004;2022-10-16T01:10:35;11.90;99.90
52565;DHT22;38460;53.106;7.004;2022-10-16T01:13:09;11.90;99.90
52565;DHT22;38460;53.106;7.004;2022-10-16T01:15:54;11.90;99.90
52565;DHT22;38460;53.106;7.004;2022-10-16T01:18:51;11.80;99.90
52565;DHT22;38460;53.106;7.004;2022-10-16T01:21:26;11.80;99.90
52565;DHT22;38460;53.106;7.004;2022-10-16T01:24:27;11.80;99.90
52565;DHT22;38460;53.106;7.004;2022-10-16T01:34:54;11.80;99.90
52565;DHT22;38460;53.106;7.004;2022-10-16T01:37:45;11.70;99.90
52565;DHT22;38460;53.106;7.004;2022-10-16T01:40:15;11.80;99.90
52565;DHT22;38460;53.106;7.004;2022-10-16T01:42:48;11.80;99.90
52565;DHT22;38460;53.106;7.004;2022-10-16T01:45:17;11.80;99.90
52565;DHT22;38460;53.106;7.004;2022-10-16T01:47:44;11.80;99.90
52565;DHT22;38460;53.106;7.004;2022-10-16T01:50:12;11.80;99.90
52565;DHT22;38460;53.106;7.004;2022-10-16T01:52:42;11.90;99.90
52565;DHT22;38460;53.106;7.004;2022-10-16T01:55:10;11.90;99.90
52565;DHT22;38460;53.106;7.004;2022-10-16T01:57:39;11.90;99.90
52565;DHT22;38460;53.106;7.004;2022-10-16T02:00:10;11.90;99.90
52565;DHT22;38460;53.106;7.004;2022-10-16T02:02:43;11.90;99.90
52565;DHT22;38460;53.106;7.004;2022-10-16T02:05:24;11.90;99.90
52565;DHT22;38460;53.106;7.004;2022-10-16T02:07:52;12.00;99.90
52565;DHT22;38460;53.106;7.004;2022-10-16T02:10:18;12.00;99.90
52565;DHT22;38460;53.106;7.004;2022-10-16T02:12:59;12.00;99.90
52565;DHT22;38460;53.106;7.004;2022-10-16T02:15:26;12.00;99.90
52565;DHT22;38460;53.106;7.004;2022-10-16T02:17:51;12.10;99.90
52565;DHT22;38460;53.106;7.004;2022-10-16T02:20:20;12.10;99.90
52565;DHT22;38460;53.106;7.004;2022-10-16T02:22:49;12.10;99.90
52565;DHT22;38460;53.106;7.004;2022-10-16T02:25:24;12.10;99.90
52565;DHT22;38460;53.106;7.004;2022-10-16T02:28:09;12.10;99.90
52565;DHT22;38460;53.106;7.004;2022-10-16T02:31:04;12.10;99.90
52565;DHT22;38460;53.106;7.004;2022-10-16T02:33:34;12.20;99.90
52565;DHT22;38460;53.106;7.004;2022-10-16T02:36:02;12.20;99.90
52565;DHT22;38460;53.106;7.004;2022-10-16T02:38:28;12.20;99.90
52565;DHT22;38460;53.106;7.004;2022-10-16T02:40:56;12.20;99.90
52565;DHT22;38460;53.106;7.004;2022-10-16T02:43:22;12.20;99.90
52565;DHT22;38460;53.106;7.004;2022-10-16T02:45:47;12.20;99.90
52565;DHT22;38460;53.106;7.004;2022-10-16T02:48:13;12.20;99.90
52565;DHT22;38460;53.106;7.004;2022-10-16T02:50:39;12.10;99.90
52565;DHT22;38460;53.106;7.004;2022-10-16T02:53:04;12.20;99.90
52565;DHT22;38460;53.106;7.004;2022-10-16T02:55:30;12.20;99.90
52565;DHT22;38460;53.106;7.004;2022-10-16T02:57:56;12.30;99.90
52565;DHT22;38460;53.106;7.004;2022-10-16T03:00:21;12.30;99.90
52565;DHT22;38460;53.106;7.004;2022-10-16T03:02:47;12.30;99.90
52565;DHT22;38460;53.106;7.004;2022-10-16T03:05:13;12.30;99.90
52565;DHT22;38460;53.106;7.004;2022-10-16T03:07:39;12.20;99.90
52565;DHT22;38460;53.106;7.004;2022-10-16T03:10:05;12.30;99.90
52565;DHT22;38460;53.106;7.004;2022-10-16T03:12:31;12.30;99.90
52565;DHT22;38460;53.106;7.004;2022-10-16T03:14:57;12.30;99.90
52565;DHT22;38460;53.106;7.004;2022-10-16T03:17:24;12.30;99.90
52565;DHT22;38460;53.106;7.004;2022-10-16T03:19:50;12.30;99.90
52565;DHT22;38460;53.106;7.004;2022-10-16T03:22:16;12.30;99.90
52565;DHT22;38460;53.106;7.004;2022-10-16T03:24:41;12.30;99.90
52565;DHT22;38460;53.106;7.004;2022-10-16T03:27:07;12.30;99.90
52565;DHT22;38460;53.106;7.004;2022-10-16T03:29:33;12.30;99.90
52565;DHT22;38460;53.106;7.004;2022-10-16T03:31:59;12.30;99.90
52565;DHT22;38460;53.106;7.004;2022-10-16T03:34:25;12.30;99.90
52565;DHT22;38460;53.106;7.004;2022-10-16T03:36:51;12.30;99.90
52565;DHT22;38460;53.106;7.004;2022-10-16T03:39:17;12.30;99.90
52565;DHT22;38460;53.106;7.004;2022-10-16T03:41:43;12.30;99.90
52565;DHT22;38460;53.106;7.004;2022-10-16T03:44:09;12.30;99.90
52565;DHT22;38460;53.106;7.004;2022-10-16T03:46:35;12.30;99.90
52565;DHT22;38460;53.106;7.004;2022-10-16T03:49:00;12.30;99.90
52565;DHT22;38460;53.106;7.004;2022-10-16T03:51:26;12.30;99.90
52565;DHT22;38460;53.106;7.004;2022-10-16T03:53:52;12.30;99.90
52565;DHT22;38460;53.106;7.004;2022-10-16T03:56:18;12.30;99.90
52565;DHT22;38460;53.106;7.004;2022-10-16T03:58:44;12.30;99.90
52565;DHT22;38460;53.106;7.004;2022-10-16T04:01:09;12.30;99.90
52565;DHT22;38460;53.106;7.004;2022-10-16T04:03:35;12.30;99.90
52565;DHT22;38460;53.106;7.004;2022-10-16T04:06:01;12.30;99.90
52565;DHT22;38460;53.106;7.004;2022-10-16T04:08:26;12.30;99.90
52565;DHT22;38460;53.106;7.004;2022-10-16T04:10:52;12.30;99.90
52565;DHT22;38460;53.106;7.004;2022-10-16T04:13:18;12.30;99.90
52565;DHT22;38460;53.106;7.004;2022-10-16T04:15:45;12.30;99.90
52565;DHT22;38460;53.106;7.004;2022-10-16T04:18:11;12.30;99.90
52565;DHT22;38460;53.106;7.004;2022-10-16T04:20:36;12.30;99.90
52565;DHT22;38460;53.106;7.004;2022-10-16T04:23:02;12.30;99.90
52565;DHT22;38460;53.106;7.004;2022-10-16T04:25:28;12.30;99.90
52565;DHT22;38460;53.106;7.004;2022-10-16T04:27:54;12.30;99.90
52565;DHT22;38460;53.106;7.004;2022-10-16T04:30:21;12.30;99.90
52565;DHT22;38460;53.106;7.004;2022-10-16T04:32:50;12.20;99.90
52565;DHT22;38460;53.106;7.004;2022-10-16T04:35:21;12.20;99.90
52565;DHT22;38460;53.106;7.004;2022-10-16T04:37:47;12.20;99.90
52565;DHT22;38460;53.106;7.004;2022-10-16T04:40:13;12.20;99.90
52565;DHT22;38460;53.106;7.004;2022-10-16T04:42:39;12.20;99.90
52565;DHT22;38460;53.106;7.004;2022-10-16T04:45:06;12.20;99.90
52565;DHT22;38460;53.106;7.004;2022-10-16T04:47:32;12.20;99.90
52565;DHT22;38460;53.106;7.004;2022-10-16T04:49:57;12.20;99.90
52565;DHT22;38460;53.106;7.004;2022-10-16T04:52:24;12.20;99.90
52565;DHT22;38460;53.106;7.004;2022-10-16T04:54:51;12.20;99.90
52565;DHT22;38460;53.106;7.004;2022-10-16T04:57:17;12.20;99.90
52565;DHT22;38460;53.106;7.004;2022-10-16T04:59:43;12.20;99.90
52565;DHT22;38460;53.106;7.004;2022-10-16T05:02:09;12.20;99.90
52565;DHT22;38460;53.106;7.004;2022-10-16T05:04:34;12.20;99.90
52565;DHT22;38460;53.106;7.004;2022-10-16T05:07:00;12.20;99.90
52565;DHT22;38460;53.106;7.004;2022-10-16T05:09:26;12.20;99.90
52565;DHT22;38460;53.106;7.004;2022-10-16T05:11:51;12.20;99.90
52565;DHT22;38460;53.106;7.004;2022-10-16T05:14:17;12.20;99.90
52565;DHT22;38460;53.106;7.004;2022-10-16T05:16:43;12.30;99.90
52565;DHT22;38460;53.106;7.004;2022-10-16T05:19:09;12.20;99.90
52565;DHT22;38460;53.106;7.004;2022-10-16T05:21:35;12.30;99.90
52565;DHT22;38460;53.106;7.004;2022-10-16T05:24:01;12.30;99.90
52565;DHT22;38460;53.106;7.004;2022-10-16T05:26:27;12.30;99.90
52565;DHT22;38460;53.106;7.004;2022-10-16T05:28:52;12.30;99.90
52565;DHT22;38460;53.106;7.004;2022-10-16T05:31:18;12.30;99.90
52565;DHT22;38460;53.106;7.004;2022-10-16T05:33:44;12.30;99.90
52565;DHT22;38460;53.106;7.004;2022-10-16T05:36:10;12.30;99.90
52565;DHT22;38460;53.106;7.004;2022-10-16T05:38:36;12.30;99.90
52565;DHT22;38460;53.106;7.004;2022-10-16T05:41:03;12.30;99.90
52565;DHT22;38460;53.106;7.004;2022-10-16T05:43:30;12.30;99.90
52565;DHT22;38460;53.106;7.004;2022-10-16T05:46:03;12.30;99.90
52565;DHT22;38460;53.106;7.004;2022-10-16T05:48:30;12.30;99.90
52565;DHT22;38460;53.106;7.004;2022-10-16T05:51:04;12.30;99.90
52565;DHT22;38460;53.106;7.004;2022-10-16T05:53:32;12.30;99.90
52565;DHT22;38460;53.106;7.004;2022-10-16T05:55:59;12.30;99.90
52565;DHT22;38460;53.106;7.004;2022-10-16T05:58:29;12.30;99.90
52565;DHT22;38460;53.106;7.004;2022-10-16T06:01:00;12.30;99.90
52565;DHT22;38460;53.106;7.004;2022-10-16T06:03:26;12.30;99.90
52565;DHT22;38460;53.106;7.004;2022-10-16T06:05:52;12.30;99.90
52565;DHT22;38460;53.106;7.004;2022-10-16T06:08:18;12.30;99.90
52565;DHT22;38460;53.106;7.004;2022-10-16T06:10:44;12.30;99.90
52565;DHT22;38460;53.106;7.004;2022-10-16T06:13:11;12.30;99.90
52565;DHT22;38460;53.106;7.004;2022-10-16T06:15:38;12.30;99.90
52565;DHT22;38460;53.106;7.004;2022-10-16T06:18:05;12.30;99.90
52565;DHT22;38460;53.106;7.004;2022-10-16T06:20:31;12.30;99.90
52565;DHT22;38460;53.106;7.004;2022-10-16T06:22:57;12.40;99.90
52565;DHT22;38460;53.106;7.004;2022-10-16T06:25:22;12.30;99.90
52565;DHT22;38460;53.106;7.004;2022-10-16T06:27:48;12.40;99.90
52565;DHT22;38460;53.106;7.004;2022-10-16T06:30:14;12.40;99.90
52565;DHT22;38460;53.106;7.004;2022-10-16T06:32:40;12.40;99.90
52565;DHT22;38460;53.106;7.004;2022-10-16T06:35:06;12.40;99.90
52565;DHT22;38460;53.106;7.004;2022-10-16T06:37:31;12.40;99.90
52565;DHT22;38460;53.106;7.004;2022-10-16T06:39:57;12.50;99.90
52565;DHT22;38460;53.106;7.004;2022-10-16T06:42:23;12.50;99.90
52565;DHT22;38460;53.106;7.004;2022-10-16T06:44:48;12.50;99.90
52565;DHT22;38460;53.106;7.004;2022-10-16T06:47:14;12.50;99.90
52565;DHT22;38460;53.106;7.004;2022-10-16T06:49:40;12.50;99.90
52565;DHT22;38460;53.106;7.004;2022-10-16T06:52:06;12.50;99.90
52565;DHT22;38460;53.106;7.004;2022-10-16T06:54:31;12.50;99.90
52565;DHT22;38460;53.106;7.004;2022-10-16T06:56:57;12.50;99.90
52565;DHT22;38460;53.106;7.004;2022-10-16T06:59:25;12.50;99.90
52565;DHT22;38460;53.106;7.004;2022-10-16T07:01:51;12.60;99.90
52565;DHT22;38460;53.106;7.004;2022-10-16T07:04:16;12.60;99.90
52565;DHT22;38460;53.106;7.004;2022-10-16T07:06:42;12.60;99.90
52565;DHT22;38460;53.106;7.004;2022-10-16T07:09:10;12.60;99.90
52565;DHT22;38460;53.106;7.004;2022-10-16T07:11:37;12.60;99.90
52565;DHT22;38460;53.106;7.004;2022-10-16T07:14:03;12.60;99.90
52565;DHT22;38460;53.106;7.004;2022-10-16T07:16:31;12.70;99.90
52565;DHT22;38460;53.106;7.004;2022-10-16T07:18:59;12.70;99.90
52565;DHT22;38460;53.106;7.004;2022-10-16T07:21:27;12.80;99.90
52565;DHT22;38460;53.106;7.004;2022-10-16T07:23:59;12.70;99.90
52565;DHT22;38460;53.106;7.004;2022-10-16T07:26:28;12.80;99.90
52565;DHT22;38460;53.106;7.004;2022-10-16T07:28:54;12.80;99.90
52565;DHT22;38460;53.106;7.004;2022-10-16T07:31:20;12.90;99.90
52565;DHT22;38460;53.106;7.004;2022-10-16T07:33:47;12.90;99.90
52565;DHT22;38460;53.106;7.004;2022-10-16T07:36:14;12.90;99.90
52565;DHT22;38460;53.106;7.004;2022-10-16T07:38:40;12.90;99.90
52565;DHT22;38460;53.106;7.004;2022-10-16T07:41:10;12.90;99.90
52565;DHT22;38460;53.106;7.004;2022-10-16T07:43:37;13.00;99.90
52565;DHT22;38460;53.106;7.004;2022-10-16T07:46:03;13.00;99.90
52565;DHT22;38460;53.106;7.004;2022-10-16T07:48:32;13.00;99.90
52565;DHT22;38460;53.106;7.004;2022-10-16T07:51:02;13.10;99.90
52565;DHT22;38460;53.106;7.004;2022-10-16T07:53:28;13.10;99.90
52565;DHT22;38460;53.106;7.004;2022-10-16T07:56:01;13.10;99.90
52565;DHT22;38460;53.106;7.004;2022-10-16T07:58:28;13.20;99.90
52565;DHT22;38460;53.106;7.004;2022-10-16T08:00:55;13.20;99.90
52565;DHT22;38460;53.106;7.004;2022-10-16T08:03:21;13.20;99.90
52565;DHT22;38460;53.106;7.004;2022-10-16T08:05:47;13.20;99.90
52565;DHT22;38460;53.106;7.004;2022-10-16T08:08:14;13.20;99.90
52565;DHT22;38460;53.106;7.004;2022-10-16T08:10:40;13.30;99.90
52565;DHT22;38460;53.106;7.004;2022-10-16T08:13:06;13.30;99.90
52565;DHT22;38460;53.106;7.004;2022-10-16T08:15:32;13.40;99.90
52565;DHT22;38460;53.106;7.004;2022-10-16T08:18:00;13.40;99.90
52565;DHT22;38460;53.106;7.004;2022-10-16T08:20:27;13.30;99.90
52565;DHT22;38460;53.106;7.004;2022-10-16T08:22:53;13.40;99.90
52565;DHT22;38460;53.106;7.004;2022-10-16T08:25:21;13.40;99.90
52565;DHT22;38460;53.106;7.004;2022-10-16T08:27:46;13.40;99.90
52565;DHT22;38460;53.106;7.004;2022-10-16T08:30:13;13.40;99.90
52565;DHT22;38460;53.106;7.004;2022-10-16T08:32:39;13.40;99.90
52565;DHT22;38460;53.106;7.004;2022-10-16T08:35:05;13.40;99.90
52565;DHT22;38460;53.106;7.004;2022-10-16T08:37:32;13.50;99.90
52565;DHT22;38460;53.106;7.004;2022-10-16T08:39:58;13.50;99.90
52565;DHT22;38460;53.106;7.004;2022-10-16T08:50:47;13.60;99.90
52565;DHT22;38460;53.106;7.004;2022-10-16T08:53:20;13.60;99.90
52565;DHT22;38460;53.106;7.004;2022-10-16T08:55:53;13.60;99.90
52565;DHT22;38460;53.106;7.004;2022-10-16T08:58:29;13.60;99.90
52565;DHT22;38460;53.106;7.004;2022-10-16T09:01:01;13.70;99.90
52565;DHT22;38460;53.106;7.004;2022-10-16T09:03:33;13.70;99.90
52565;DHT22;38460;53.106;7.004;2022-10-16T09:15:07;14.00;99.90
52565;DHT22;38460;53.106;7.004;2022-10-16T09:17:47;14.00;99.90
52565;DHT22;38460;53.106;7.004;2022-10-16T09:23:30;14.10;99.90
52565;DHT22;38460;53.106;7.004;2022-10-16T09:25:59;14.10;99.90
52565;DHT22;38460;53.106;7.004;2022-10-16T09:28:26;14.20;99.90
52565;DHT22;38460;53.106;7.004;2022-10-16T09:30:51;14.20;99.90
52565;DHT22;38460;53.106;7.004;2022-10-16T09:33:21;14.30;99.90
52565;DHT22;38460;53.106;7.004;2022-10-16T09:35:51;14.30;99.90
52565;DHT22;38460;53.106;7.004;2022-10-16T09:38:33;14.40;99.90
52565;DHT22;38460;53.106;7.004;2022-10-16T09:41:01;14.50;99.90
52565;DHT22;38460;53.106;7.004;2022-10-16T09:43:40;14.60;99.90
52565;DHT22;38460;53.106;7.004;2022-10-16T09:46:09;14.70;99.90
52565;DHT22;38460;53.106;7.004;2022-10-16T09:48:51;14.80;99.90
52565;DHT22;38460;53.106;7.004;2022-10-16T09:51:43;14.80;99.90
52565;DHT22;38460;53.106;7.004;2022-10-16T09:56:36;14.90;99.90
52565;DHT22;38460;53.106;7.004;2022-10-16T09:59:18;15.00;99.90
52565;DHT22;38460;53.106;7.004;2022-10-16T10:01:52;15.00;99.90
52565;DHT22;38460;53.106;7.004;2022-10-16T10:04:22;15.00;99.90
52565;DHT22;38460;53.106;7.004;2022-10-16T10:06:51;15.00;99.90
52565;DHT22;38460;53.106;7.004;2022-10-16T10:09:34;15.10;99.90
52565;DHT22;38460;53.106;7.004;2022-10-16T10:12:04;15.20;99.90
52565;DHT22;38460;53.106;7.004;2022-10-16T10:14:38;15.20;99.90
52565;DHT22;38460;53.106;7.004;2022-10-16T10:25:07;15.30;99.90
52565;DHT22;38460;53.106;7.004;2022-10-16T10:33:44;15.20;99.90
52565;DHT22;38460;53.106;7.004;2022-10-16T10:38:59;15.40;99.90
52565;DHT22;38460;53.106;7.004;2022-10-16T10:53:04;16.00;99.90
52565;DHT22;38460;53.106;7.004;2022-10-16T10:55:53;16.00;99.90
52565;DHT22;38460;53.106;7.004;2022-10-16T11:06:31;16.40;99.90
52565;DHT22;38460;53.106;7.004;2022-10-16T11:09:20;16.50;99.90
52565;DHT22;38460;53.106;7.004;2022-10-16T11:12:06;16.60;99.90
52565;DHT22;38460;53.106;7.004;2022-10-16T11:17:28;16.70;99.90
52565;DHT22;38460;53.106;7.004;2022-10-16T11:22:50;17.00;99.90
52565;DHT22;38460;53.106;7.004;2022-10-16T11:28:02;17.20;99.90
52565;DHT22;38460;53.106;7.004;2022-10-16T11:30:31;17.30;99.90
52565;DHT22;38460;53.106;7.004;2022-10-16T11:36:03;17.40;99.90
52565;DHT22;38460;53.106;7.004;2022-10-16T11:41:15;17.70;99.90
52565;DHT22;38460;53.106;7.004;2022-10-16T11:43:49;17.80;99.90
52565;DHT22;38460;53.106;7.004;2022-10-16T11:46:20;17.90;99.90
52565;DHT22;38460;53.106;7.004;2022-10-16T11:49:13;17.90;99.90
52565;DHT22;38460;53.106;7.004;2022-10-16T11:51:59;18.00;99.90
52565;DHT22;38460;53.106;7.004;2022-10-16T11:57:23;17.90;99.90
52565;DHT22;38460;53.106;7.004;2022-10-16T11:59:57;17.80;99.90
52565;DHT22;38460;53.106;7.004;2022-10-16T12:08:08;17.70;99.90
52565;DHT22;38460;53.106;7.004;2022-10-16T12:10:35;17.70;99.90
52565;DHT22;38460;53.106;7.004;2022-10-16T12:13:05;17.70;99.90
52565;DHT22;38460;53.106;7.004;2022-10-16T12:15:33;17.60;99.90
52565;DHT22;38460;53.106;7.004;2022-10-16T12:17:59;17.60;99.90
52565;DHT22;38460;53.106;7.004;2022-10-16T12:20:27;17.70;99.90
52565;DHT22;38460;53.106;7.004;2022-10-16T12:23:00;17.70;99.90
52565;DHT22;38460;53.106;7.004;2022-10-16T12:25:35;17.80;99.90
52565;DHT22;38460;53.106;7.004;2022-10-16T12:30:42;17.80;99.90
52565;DHT22;38460;53.106;7.004;2022-10-16T12:35:49;18.00;99.90
52565;DHT22;38460;53.106;7.004;2022-10-16T12:38:27;18.00;99.90
52565;DHT22;38460;53.106;7.004;2022-10-16T12:41:00;18.10;99.90
52565;DHT22;38460;53.106;7.004;2022-10-16T12:43:47;18.20;99.90
52565;DHT22;38460;53.106;7.004;2022-10-16T12:48:43;18.20;99.90
52565;DHT22;38460;53.106;7.004;2022-10-16T12:51:23;18.20;99.90
52565;DHT22;38460;53.106;7.004;2022-10-16T13:21:47;18.10;99.90
52565;DHT22;38460;53.106;7.004;2022-10-16T13:24:53;18.00;99.90
52565;DHT22;38460;53.106;7.004;2022-10-16T13:27:55;17.90;99.90
52565;DHT22;38460;53.106;7.004;2022-10-16T13:30:43;17.80;99.90
52565;DHT22;38460;53.106;7.004;2022-10-16T13:33:37;17.80;99.90
52565;DHT22;38460;53.106;7.004;2022-10-16T13:36:04;17.70;99.90
52565;DHT22;38460;53.106;7.004;2022-10-16T13:38:33;17.70;99.90
52565;DHT22;38460;53.106;7.004;2022-10-16T13:41:05;17.60;99.90
52565;DHT22;38460;53.106;7.004;2022-10-16T13:43:46;17.60;99.90
52565;DHT22;38460;53.106;7.004;2022-10-16T13:46:18;17.60;99.90
52565;DHT22;38460;53.106;7.004;2022-10-16T13:48:55;17.60;99.90
52565;DHT22;38460;53.106;7.004;2022-10-16T13:51:22;17.70;99.90
52565;DHT22;38460;53.106;7.004;2022-10-16T13:53:48;17.70;99.90
52565;DHT22;38460;53.106;7.004;2022-10-16T13:56:18;17.60;99.90
52565;DHT22;38460;53.106;7.004;2022-10-16T13:58:45;17.60;99.90
52565;DHT22;38460;53.106;7.004;2022-10-16T14:01:20;17.50;99.90
52565;DHT22;38460;53.106;7.004;2022-10-16T14:03:49;17.50;99.90
52565;DHT22;38460;53.106;7.004;2022-10-16T14:06:20;17.50;99.90
52565;DHT22;38460;53.106;7.004;2022-10-16T14:08:59;17.40;99.90
52565;DHT22;38460;53.106;7.004;2022-10-16T14:11:26;17.50;99.90
52565;DHT22;38460;53.106;7.004;2022-10-16T14:13:52;17.40;99.90
52565;DHT22;38460;53.106;7.004;2022-10-16T14:16:23;17.40;99.90
52565;DHT22;38460;53.106;7.004;2022-10-16T14:19:00;17.40;99.90
52565;DHT22;38460;53.106;7.004;2022-10-16T14:21:26;17.40;99.90
52565;DHT22;38460;53.106;7.004;2022-10-16T14:23:53;17.40;99.90
52565;DHT22;38460;53.106;7.004;2022-10-16T14:26:22;17.40;99.90
52565;DHT22;38460;53.106;7.004;2022-10-16T14:29:09;17.30;99.90
52565;DHT22;38460;53.106;7.004;2022-10-16T14:31:36;17.30;99.90
52565;DHT22;38460;53.106;7.004;2022-10-16T14:34:03;17.30;99.90
52565;DHT22;38460;53.106;7.004;2022-10-16T14:36:30;17.20;99.90
52565;DHT22;38460;53.106;7.004;2022-10-16T14:39:14;17.10;99.90
52565;DHT22;38460;53.106;7.004;2022-10-16T14:41:46;17.10;99.90
52565;DHT22;38460;53.106;7.004;2022-10-16T14:44:12;17.00;99.90
52565;DHT22;38460;53.106;7.004;2022-10-16T14:46:40;16.90;99.90
52565;DHT22;38460;53.106;7.004;2022-10-16T14:51:36;16.80;99.90
52565;DHT22;38460;53.106;7.004;2022-10-16T14:54:03;16.70;99.90
52565;DHT22;38460;53.106;7.004;2022-10-16T14:56:34;16.70;99.90
52565;DHT22;38460;53.106;7.004;2022-10-16T14:59:12;16.60;99.90
52565;DHT22;38460;53.106;7.004;2022-10-16T15:01:39;16.60;99.90
52565;DHT22;38460;53.106;7.004;2022-10-16T15:04:04;16.50;99.90
52565;DHT22;38460;53.106;7.004;2022-10-16T15:06:30;16.40;99.90
52565;DHT22;38460;53.106;7.004;2022-10-16T15:08:56;16.40;99.90
52565;DHT22;38460;53.106;7.004;2022-10-16T15:11:21;16.40;99.90
52565;DHT22;38460;53.106;7.004;2022-10-16T15:13:47;16.40;99.90
52565;DHT22;38460;53.106;7.004;2022-10-16T15:16:16;16.30;99.90
52565;DHT22;38460;53.106;7.004;2022-10-16T15:18:43;16.30;99.90
52565;DHT22;38460;53.106;7.004;2022-10-16T15:21:33;16.20;99.90
52565;DHT22;38460;53.106;7.004;2022-10-16T15:24:00;16.30;99.90
52565;DHT22;38460;53.106;7.004;2022-10-16T15:26:27;16.20;99.90
52565;DHT22;38460;53.106;7.004;2022-10-16T15:28:53;16.10;99.90
52565;DHT22;38460;53.106;7.004;2022-10-16T15:31:19;16.10;99.90
52565;DHT22;38460;53.106;7.004;2022-10-16T15:33:50;16.10;99.90
52565;DHT22;38460;53.106;7.004;2022-10-16T15:36:28;16.00;99.90
52565;DHT22;38460;53.106;7.004;2022-10-16T15:38:55;16.00;99.90
52565;DHT22;38460;53.106;7.004;2022-10-16T15:41:22;16.00;99.90
52565;DHT22;38460;53.106;7.004;2022-10-16T15:43:48;15.90;99.90
52565;DHT22;38460;53.106;7.004;2022-10-16T15:46:16;15.90;99.90
52565;DHT22;38460;53.106;7.004;2022-10-16T15:48:43;15.80;99.90
52565;DHT22;38460;53.106;7.004;2022-10-16T15:51:09;15.80;99.90
52565;DHT22;38460;53.106;7.004;2022-10-16T15:53:35;15.70;99.90
52565;DHT22;38460;53.106;7.004;2022-10-16T15:56:02;15.70;99.90
52565;DHT22;38460;53.106;7.004;2022-10-16T15:58:28;15.70;99.90
52565;DHT22;38460;53.106;7.004;2022-10-16T16:00:59;15.60;99.90
52565;DHT22;38460;53.106;7.004;2022-10-16T16:03:30;15.60;99.90
52565;DHT22;38460;53.106;7.004;2022-10-16T16:05:56;15.50;99.90
52565;DHT22;38460;53.106;7.004;2022-10-16T16:08:23;15.50;99.90
52565;DHT22;38460;53.106;7.004;2022-10-16T16:11:12;15.40;99.90
52565;DHT22;38460;53.106;7.004;2022-10-16T16:13:38;15.30;99.90
52565;DHT22;38460;53.106;7.004;2022-10-16T16:16:12;15.30;99.90
52565;DHT22;38460;53.106;7.004;2022-10-16T16:18:39;15.20;99.90
52565;DHT22;38460;53.106;7.004;2022-10-16T16:21:06;15.20;99.90
52565;DHT22;38460;53.106;7.004;2022-10-16T16:23:32;15.10;99.90
52565;DHT22;38460;53.106;7.004;2022-10-16T16:26:09;15.10;99.90
52565;DHT22;38460;53.106;7.004;2022-10-16T16:28:36;15.00;99.90
52565;DHT22;38460;53.106;7.004;2022-10-16T16:31:02;14.90;99.90
52565;DHT22;38460;53.106;7.004;2022-10-16T16:33:28;14.90;99.90
52565;DHT22;38460;53.106;7.004;2022-10-16T16:35:58;14.90;99.90
52565;DHT22;38460;53.106;7.004;2022-10-16T16:38:24;14.80;99.90
52565;DHT22;38460;53.106;7.004;2022-10-16T16:40:50;14.70;99.90
52565;DHT22;38460;53.106;7.004;2022-10-16T16:43:17;14.70;99.90
52565;DHT22;38460;53.106;7.004;2022-10-16T16:45:43;14.60;99.90
52565;DHT22;38460;53.106;7.004;2022-10-16T16:48:09;14.60;99.90
52565;DHT22;38460;53.106;7.004;2022-10-16T16:50:36;14.50;99.90
52565;DHT22;38460;53.106;7.004;2022-10-16T16:53:01;14.40;99.90
52565;DHT22;38460;53.106;7.004;2022-10-16T16:55:27;14.40;99.90
52565;DHT22;38460;53.106;7.004;2022-10-16T16:57:54;14.40;99.90
52565;DHT22;38460;53.106;7.004;2022-10-16T17:00:20;14.30;99.90
52565;DHT22;38460;53.106;7.004;2022-10-16T17:02:48;14.20;99.90
52565;DHT22;38460;53.106;7.004;2022-10-16T17:05:14;14.20;99.90
52565;DHT22;38460;53.106;7.004;2022-10-16T17:07:40;14.10;99.90
52565;DHT22;38460;53.106;7.004;2022-10-16T17:10:07;14.10;99.90
52565;DHT22;38460;53.106;7.004;2022-10-16T17:12:33;14.10;99.90
52565;DHT22;38460;53.106;7.004;2022-10-16T17:14:59;14.00;99.90
52565;DHT22;38460;53.106;7.004;2022-10-16T17:17:25;14.00;99.90
52565;DHT22;38460;53.106;7.004;2022-10-16T17:19:51;13.90;99.90
52565;DHT22;38460;53.106;7.004;2022-10-16T17:22:18;13.90;99.90
52565;DHT22;38460;53.106;7.004;2022-10-16T17:24:43;13.90;99.90
52565;DHT22;38460;53.106;7.004;2022-10-16T17:27:10;13.80;99.90
52565;DHT22;38460;53.106;7.004;2022-10-16T17:29:37;13.80;99.90
52565;DHT22;38460;53.106;7.004;2022-10-16T17:32:03;13.70;99.90
52565;DHT22;38460;53.106;7.004;2022-10-16T17:34:29;13.60;99.90
52565;DHT22;38460;53.106;7.004;2022-10-16T17:36:54;13.50;99.90
52565;DHT22;38460;53.106;7.004;2022-10-16T17:39:20;13.50;99.90
52565;DHT22;38460;53.106;7.004;2022-10-16T17:41:47;13.40;99.90
52565;DHT22;38460;53.106;7.004;2022-10-16T17:44:13;13.40;99.90
52565;DHT22;38460;53.106;7.004;2022-10-16T17:46:46;13.40;99.90
52565;DHT22;38460;53.106;7.004;2022-10-16T17:49:12;13.30;99.90
52565;DHT22;38460;53.106;7.004;2022-10-16T17:51:38;13.30;99.90